createdAt,value
2022-10-15T00:01:32.373Z,11.51
2022-10-15T00:06:34.000Z,11.39
2022-10-15T00:09:02.175Z,11.44
2022-10-15T00:11:31.326Z,11.50
2022-10-15T00:14:00.992Z,11.52
2022-10-15T00:16:30.221Z,11.40
2022-10-15T00:19:00.655Z,11.43
2022-10-15T00:21:29.110Z,11.46
2022-10-15T00:23:57.537Z,11.49
2022-10-15T00:26:28.023Z,11.52
2022-10-15T00:28:57.077Z,11.55
2022-10-15T00:31:27.125Z,11.51
2022-10-15T00:33:56.622Z,11.40
2022-10-15T00:36:27.840Z,11.39
2022-10-15T00:38:55.733Z,11.38
2022-10-15T00:41:25.697Z,11.44
2022-10-15T00:43:54.977Z,11.47
2022-10-15T00:46:26.233Z,11.46
2022-10-15T00:48:57.939Z,11.47
2022-10-15T00:51:33.233Z,11.48
2022-10-15T00:54:01.920Z,11.52
2022-10-15T00:56:32.764Z,11.38
2022-10-15T00:59:01.733Z,11.27
2022-10-15T01:01:30.550Z,11.32
2022-10-15T01:03:59.081Z,11.29
2022-10-15T01:06:28.345Z,11.27
2022-10-15T01:08:56.473Z,11.34
2022-10-15T01:11:37.682Z,11.33
2022-10-15T01:14:20.225Z,11.29
2022-10-15T01:16:51.610Z,11.33
2022-10-15T01:19:56.012Z,11.29
2022-10-15T01:22:38.533Z,11.33
2022-10-15T01:25:22.052Z,11.40
2022-10-15T01:27:55.635Z,11.41
2022-10-15T01:30:26.353Z,11.42
2022-10-15T01:33:05.556Z,11.35
2022-10-15T01:35:45.062Z,11.32
2022-10-15T01:38:26.443Z,11.33
2022-10-15T01:40:58.472Z,11.33
2022-10-15T01:43:34.398Z,11.31
2022-10-15T01:46:29.010Z,11.25
2022-10-15T01:49:06.982Z,11.20
2022-10-15T01:51:37.808Z,11.24
2022-10-15T01:54:11.477Z,11.26
2022-10-15T01:56:40.413Z,11.25
2022-10-15T01:59:11.180Z,11.16
2022-10-15T02:04:21.797Z,10.99
2022-10-15T02:06:54.210Z,10.91
2022-10-15T02:09:31.629Z,10.87
2022-10-15T02:12:09.948Z,10.85
2022-10-15T02:14:45.448Z,10.78
2022-10-15T02:17:16.220Z,10.71
2022-10-15T02:19:53.515Z,10.66
2022-10-15T02:22:26.620Z,10.67
2022-10-15T02:24:58.316Z,10.64
2022-10-15T02:27:28.785Z,10.60
2022-10-15T02:29:58.557Z,10.56
2022-10-15T02:32:29.545Z,10.53
2022-10-15T02:34:57.799Z,10.48
2022-10-15T02:37:28.267Z,10.51
2022-10-15T02:39:56.137Z,10.54
2022-10-15T02:42:25.674Z,10.55
2022-10-15T02:44:53.905Z,10.53
2022-10-15T02:47:22.105Z,10.54
2022-10-15T02:49:51.234Z,10.58
2022-10-15T02:52:19.422Z,10.63
2022-10-15T02:54:47.143Z,10.67
2022-10-15T02:57:14.917Z,10.73
2022-10-15T02:59:44.287Z,10.70
2022-10-15T03:02:15.348Z,10.66
2022-10-15T03:04:46.985Z,10.67
2022-10-15T03:07:17.045Z,10.66
2022-10-15T03:09:45.015Z,10.61
2022-10-15T03:12:13.870Z,10.61
2022-10-15T03:14:42.417Z,10.60
2022-10-15T03:17:10.189Z,10.59
2022-10-15T03:19:37.971Z,10.62
2022-10-15T03:22:06.152Z,10.60
2022-10-15T03:24:44.919Z,10.52
2022-10-15T03:27:13.309Z,10.48
2022-10-15T03:29:41.635Z,10.46
2022-10-15T03:32:09.509Z,10.44
2022-10-15T03:34:37.508Z,10.41
2022-10-15T03:37:05.479Z,10.35
2022-10-15T03:39:33.236Z,10.34
2022-10-15T03:42:05.532Z,10.40
2022-10-15T03:44:39.699Z,10.42
2022-10-15T03:47:13.548Z,10.45
2022-10-15T03:49:45.669Z,10.43
2022-10-15T03:52:13.529Z,10.45
2022-10-15T03:54:42.587Z,10.43
2022-10-15T03:57:13.118Z,10.44
2022-10-15T03:59:46.440Z,10.44
2022-10-15T04:02:15.493Z,10.44
2022-10-15T04:04:43.307Z,10.47
2022-10-15T04:07:11.177Z,10.43
2022-10-15T04:09:39.129Z,10.37
2022-10-15T04:12:26.978Z,10.27
2022-10-15T04:14:55.142Z,10.19
2022-10-15T04:17:23.149Z,10.15
2022-10-15T04:19:51.842Z,10.17
2022-10-15T04:22:21.145Z,10.15
2022-10-15T04:24:53.353Z,10.14
2022-10-15T04:27:30.323Z,10.14
2022-10-15T04:30:10.304Z,10.18
2022-10-15T04:32:42.547Z,10.13
2022-10-15T04:35:11.439Z,10.08
2022-10-15T04:38:05.352Z,10.09
2022-10-15T04:40:58.690Z,10.05
2022-10-15T04:43:31.673Z,10.05
2022-10-15T04:46:06.624Z,10.11
2022-10-15T04:48:38.984Z,10.21
2022-10-15T04:51:14.466Z,10.26
2022-10-15T04:54:04.669Z,10.29
2022-10-15T04:56:33.274Z,10.28
2022-10-15T04:59:02.717Z,10.31
2022-10-15T05:01:33.002Z,10.38
2022-10-15T05:04:07.460Z,10.46
2022-10-15T05:06:35.244Z,10.55
2022-10-15T05:09:16.070Z,10.65
2022-10-15T05:11:49.024Z,10.71
2022-10-15T05:14:18.194Z,10.73
2022-10-15T05:17:03.206Z,10.77
2022-10-15T05:19:35.620Z,10.77
2022-10-15T05:22:03.594Z,10.84
2022-10-15T05:24:32.828Z,10.88
2022-10-15T05:27:26.533Z,10.93
2022-10-15T05:29:55.589Z,11.01
2022-10-15T05:32:26.448Z,11.11
2022-10-15T05:34:54.185Z,11.19
2022-10-15T05:37:40.860Z,11.30
2022-10-15T05:40:09.958Z,11.40
2022-10-15T05:42:38.089Z,11.46
2022-10-15T05:45:09.833Z,11.49
2022-10-15T05:47:37.611Z,11.53
2022-10-15T05:50:17.508Z,11.56
2022-10-15T05:52:48.301Z,11.59
2022-10-15T05:55:53.789Z,11.62
2022-10-15T05:58:21.572Z,11.65
2022-10-15T06:00:55.809Z,11.70
2022-10-15T06:03:23.583Z,11.69
2022-10-15T06:05:51.678Z,11.69
2022-10-15T06:08:20.088Z,11.71
2022-10-15T06:10:48.926Z,11.72
2022-10-15T06:13:17.105Z,11.74
2022-10-15T06:15:46.869Z,11.76
2022-10-15T06:18:16.421Z,11.78
2022-10-15T06:20:44.928Z,11.78
2022-10-15T06:23:13.155Z,11.80
2022-10-15T06:25:40.902Z,11.81
2022-10-15T06:28:09.581Z,11.79
2022-10-15T06:30:42.458Z,11.79
2022-10-15T06:35:44.313Z,11.83
2022-10-15T06:38:12.516Z,11.87
2022-10-15T06:40:40.294Z,11.89
2022-10-15T06:43:09.746Z,11.90
2022-10-15T06:45:39.864Z,11.93
2022-10-15T06:48:11.376Z,11.97
2022-10-15T06:50:39.932Z,12.00
2022-10-15T06:53:09.455Z,12.03
2022-10-15T06:55:39.480Z,12.07
2022-10-15T06:58:07.378Z,12.10
2022-10-15T07:03:08.577Z,12.19
2022-10-15T07:05:36.368Z,12.22
2022-10-15T07:08:04.128Z,12.25
2022-10-15T07:10:33.277Z,12.27
2022-10-15T07:13:01.571Z,12.32
2022-10-15T07:15:29.615Z,12.35
2022-10-15T07:18:01.303Z,12.36
2022-10-15T07:20:30.676Z,12.40
2022-10-15T07:23:01.381Z,12.41
2022-10-15T07:25:34.785Z,12.43
2022-10-15T07:28:02.612Z,12.48
2022-10-15T07:30:30.369Z,12.51
2022-10-15T07:32:58.814Z,12.54
2022-10-15T07:35:26.973Z,12.54
2022-10-15T07:37:55.245Z,12.51
2022-10-15T07:40:22.978Z,12.53
2022-10-15T07:42:55.503Z,12.61
2022-10-15T07:45:25.162Z,12.68
2022-10-15T07:47:53.392Z,12.78
2022-10-15T07:50:22.156Z,12.86
2022-10-15T07:52:49.941Z,12.89
2022-10-15T07:55:17.789Z,12.95
2022-10-15T07:57:45.612Z,13.01
2022-10-15T08:00:15.349Z,13.03
2022-10-15T08:02:44.069Z,13.06
2022-10-15T08:05:11.852Z,13.13
2022-10-15T08:07:41.863Z,13.17
2022-10-15T08:10:13.386Z,13.19
2022-10-15T08:12:41.231Z,13.28
2022-10-15T08:15:09.614Z,13.25
2022-10-15T08:17:38.843Z,13.55
2022-10-15T08:20:07.522Z,13.71
2022-10-15T08:22:35.864Z,13.76
2022-10-15T08:25:03.938Z,13.67
2022-10-15T08:27:31.872Z,13.67
2022-10-15T08:30:01.982Z,13.59
2022-10-15T08:32:29.746Z,13.57
2022-10-15T08:34:58.809Z,13.53
2022-10-15T08:37:26.576Z,13.61
2022-10-15T08:39:54.310Z,13.63
2022-10-15T08:42:29.555Z,13.72
2022-10-15T08:45:01.268Z,13.79
2022-10-15T08:47:34.066Z,14.22
2022-10-15T08:50:13.616Z,14.74
2022-10-15T08:52:44.185Z,15.59
2022-10-15T08:55:14.164Z,15.81
2022-10-15T08:57:46.905Z,16.11
2022-10-15T09:00:20.490Z,16.22
2022-10-15T09:02:57.372Z,16.48
2022-10-15T09:05:31.216Z,16.86
2022-10-15T09:08:04.913Z,16.57
2022-10-15T09:10:39.697Z,16.18
2022-10-15T09:13:16.223Z,15.96
2022-10-15T09:15:51.864Z,15.80
2022-10-15T09:18:24.479Z,15.70
2022-10-15T09:20:54.774Z,15.65
2022-10-15T09:23:24.832Z,15.44
2022-10-15T09:25:58.102Z,15.22
2022-10-15T09:28:32.488Z,15.05
2022-10-15T09:31:00.898Z,15.01
2022-10-15T09:33:38.653Z,15.14
2022-10-15T09:36:24.668Z,15.28
2022-10-15T09:39:04.212Z,15.23
2022-10-15T09:41:43.922Z,15.36
2022-10-15T09:44:14.145Z,15.23
2022-10-15T09:46:50.397Z,15.21
2022-10-15T09:49:19.858Z,15.60
2022-10-15T09:52:02.761Z,15.75
2022-10-15T09:54:40.926Z,15.72
2022-10-15T09:57:12.502Z,15.48
2022-10-15T09:59:53.699Z,15.38
2022-10-15T10:02:23.389Z,15.32
2022-10-15T10:04:51.783Z,15.16
2022-10-15T10:07:36.391Z,14.94
2022-10-15T10:10:08.436Z,14.89
2022-10-15T10:12:38.487Z,14.81
2022-10-15T10:15:09.828Z,14.51
2022-10-15T10:17:37.613Z,14.50
2022-10-15T10:20:18.315Z,14.58
2022-10-15T10:22:51.516Z,14.54
2022-10-15T10:25:31.921Z,14.44
2022-10-15T10:28:06.346Z,14.38
2022-10-15T10:30:37.642Z,14.40
2022-10-15T10:33:06.444Z,14.26
2022-10-15T10:35:45.916Z,14.20
2022-10-15T10:38:25.710Z,14.14
2022-10-15T10:40:56.402Z,14.02
2022-10-15T10:43:28.708Z,14.01
2022-10-15T10:45:58.995Z,14.01
2022-10-15T10:48:29.599Z,14.14
2022-10-15T10:51:10.514Z,14.20
2022-10-15T10:54:00.931Z,14.09
2022-10-15T10:56:34.807Z,14.02
2022-10-15T10:59:10.571Z,13.92
2022-10-15T11:01:38.448Z,13.83
2022-10-15T11:04:16.929Z,13.90
2022-10-15T11:06:59.721Z,13.88
2022-10-15T11:09:43.069Z,13.99
2022-10-15T11:12:30.695Z,14.03
2022-10-15T11:15:04.860Z,14.04
2022-10-15T11:17:44.770Z,14.07
2022-10-15T11:20:32.020Z,14.13
2022-10-15T11:23:27.249Z,14.12
2022-10-15T11:26:03.847Z,14.01
2022-10-15T11:28:45.385Z,13.95
2022-10-15T11:34:11.683Z,14.04
2022-10-15T11:37:01.735Z,14.11
2022-10-15T11:39:46.412Z,14.15
2022-10-15T11:42:21.296Z,14.14
2022-10-15T11:45:04.620Z,14.15
2022-10-15T11:47:46.452Z,14.21
2022-10-15T11:50:26.483Z,14.27
2022-10-15T11:53:20.989Z,14.34
2022-10-15T11:55:55.879Z,14.32
2022-10-15T11:58:32.518Z,14.34
2022-10-15T12:01:07.015Z,14.34
2022-10-15T12:03:41.507Z,14.41
2022-10-15T12:06:12.103Z,14.42
2022-10-15T12:08:44.206Z,14.46
2022-10-15T12:11:25.617Z,14.47
2022-10-15T12:14:01.809Z,14.52
2022-10-15T12:16:36.465Z,14.61
2022-10-15T12:19:14.958Z,14.71
2022-10-15T12:22:00.840Z,14.80
2022-10-15T12:24:56.397Z,14.86
2022-10-15T12:27:34.331Z,14.84
2022-10-15T12:30:34.319Z,14.83
2022-10-15T12:33:03.486Z,14.90
2022-10-15T12:35:39.509Z,14.83
2022-10-15T12:38:17.850Z,14.82
2022-10-15T12:40:46.793Z,14.93
2022-10-15T12:43:17.234Z,14.95
2022-10-15T12:45:55.379Z,15.00
2022-10-15T12:48:31.777Z,15.07
2022-10-15T12:51:39.720Z,15.11
2022-10-15T12:54:41.880Z,15.18
2022-10-15T12:57:55.569Z,15.25
2022-10-15T13:00:44.592Z,15.28
2022-10-15T13:03:40.172Z,15.31
2022-10-15T13:06:17.530Z,15.27
2022-10-15T13:08:49.171Z,15.30
2022-10-15T13:11:22.652Z,15.28
2022-10-15T13:13:52.211Z,15.36
2022-10-15T13:16:20.355Z,15.51
2022-10-15T13:18:53.185Z,15.47
2022-10-15T13:21:20.937Z,15.55
2022-10-15T13:23:50.085Z,15.72
2022-10-15T13:26:21.146Z,15.93
2022-10-15T13:28:50.131Z,16.04
2022-10-15T13:31:26.066Z,16.15
2022-10-15T13:34:02.148Z,16.11
2022-10-15T13:36:33.021Z,16.04
2022-10-15T13:39:03.898Z,16.01
2022-10-15T13:41:34.750Z,16.15
2022-10-15T13:44:03.054Z,16.26
2022-10-15T13:46:32.716Z,16.27
2022-10-15T13:49:04.971Z,16.24
2022-10-15T13:51:40.395Z,16.31
2022-10-15T13:54:11.662Z,16.15
2022-10-15T13:56:49.365Z,16.09
2022-10-15T13:59:20.185Z,16.10
2022-10-15T14:01:49.973Z,16.13
2022-10-15T14:04:20.747Z,16.13
2022-10-15T14:09:36.717Z,16.23
2022-10-15T14:12:07.136Z,16.32
2022-10-15T14:14:36.890Z,16.47
2022-10-15T14:17:07.114Z,16.66
2022-10-15T14:19:38.568Z,16.72
2022-10-15T14:22:07.004Z,16.85
2022-10-15T14:24:37.333Z,16.90
2022-10-15T14:27:07.539Z,16.95
2022-10-15T14:29:41.091Z,16.98
2022-10-15T14:32:27.867Z,17.13
2022-10-15T14:34:57.914Z,17.35
2022-10-15T14:37:40.201Z,17.49
2022-10-15T14:40:18.647Z,17.57
2022-10-15T14:42:48.460Z,17.43
2022-10-15T14:45:24.225Z,17.55
2022-10-15T14:47:54.430Z,17.61
2022-10-15T14:50:25.963Z,17.56
2022-10-15T14:52:56.218Z,17.49
2022-10-15T14:55:33.547Z,17.44
2022-10-15T14:58:07.845Z,17.30
2022-10-15T15:00:41.626Z,17.20
2022-10-15T15:03:16.600Z,17.21
2022-10-15T15:05:48.218Z,17.30
2022-10-15T15:08:16.174Z,17.51
2022-10-15T15:10:45.081Z,17.55
2022-10-15T15:13:16.582Z,17.42
2022-10-15T15:15:44.395Z,17.20
2022-10-15T15:18:12.572Z,17.02
2022-10-15T15:20:41.769Z,16.89
2022-10-15T15:23:15.491Z,16.79
2022-10-15T15:25:43.275Z,16.63
2022-10-15T15:28:14.412Z,16.61
2022-10-15T15:30:43.653Z,16.59
2022-10-15T15:33:12.346Z,16.53
2022-10-15T15:35:50.569Z,16.55
2022-10-15T15:38:20.015Z,16.68
2022-10-15T15:40:47.900Z,16.84
2022-10-15T15:43:17.908Z,16.84
2022-10-15T15:45:47.378Z,16.68
2022-10-15T15:48:15.168Z,16.53
2022-10-15T15:50:42.919Z,16.43
2022-10-15T15:53:12.931Z,16.31
2022-10-15T15:55:42.031Z,16.27
2022-10-15T15:58:09.796Z,16.20
2022-10-15T16:00:37.562Z,16.09
2022-10-15T16:03:05.356Z,15.92
2022-10-15T16:05:33.095Z,15.86
2022-10-15T16:08:00.855Z,15.80
2022-10-15T16:10:28.564Z,15.63
2022-10-15T16:12:57.677Z,15.61
2022-10-15T16:15:25.408Z,15.61
2022-10-15T16:17:53.182Z,15.38
2022-10-15T16:20:21.774Z,15.34
2022-10-15T16:22:50.879Z,15.31
2022-10-15T16:25:19.039Z,15.09
2022-10-15T16:27:48.753Z,15.04
2022-10-15T16:30:17.909Z,14.93
2022-10-15T16:32:46.060Z,14.90
2022-10-15T16:35:13.857Z,14.84
2022-10-15T16:37:41.648Z,14.78
2022-10-15T16:40:10.337Z,14.66
2022-10-15T16:42:38.094Z,14.51
2022-10-15T16:45:06.714Z,14.46
2022-10-15T16:47:35.881Z,14.40
2022-10-15T16:50:04.643Z,14.36
2022-10-15T16:52:34.572Z,14.22
2022-10-15T16:55:02.365Z,14.07
2022-10-15T16:57:30.154Z,14.00
2022-10-15T16:59:57.878Z,13.84
2022-10-15T17:02:25.953Z,13.77
2022-10-15T17:04:55.320Z,13.67
2022-10-15T17:07:23.637Z,13.62
2022-10-15T17:09:51.917Z,13.50
2022-10-15T17:12:19.708Z,13.33
2022-10-15T17:14:51.796Z,13.28
2022-10-15T17:17:20.381Z,13.22
2022-10-15T17:19:48.473Z,13.22
2022-10-15T17:22:27.453Z,13.22
2022-10-15T17:24:56.521Z,13.29
2022-10-15T17:27:24.313Z,13.32
2022-10-15T17:29:52.160Z,13.30
2022-10-15T17:32:19.914Z,13.26
2022-10-15T17:34:47.687Z,13.01
2022-10-15T17:37:16.928Z,12.95
2022-10-15T17:39:44.985Z,12.87
2022-10-15T17:42:13.228Z,12.78
2022-10-15T17:44:40.957Z,12.70
2022-10-15T17:47:08.836Z,12.68
2022-10-15T17:49:36.590Z,12.53
2022-10-15T17:52:04.381Z,12.52
2022-10-15T17:54:33.580Z,12.56
2022-10-15T17:57:01.313Z,12.57
2022-10-15T17:59:29.207Z,12.66
2022-10-15T18:01:59.797Z,12.71
2022-10-15T18:04:28.837Z,12.67
2022-10-15T18:06:56.735Z,12.71
2022-10-15T18:09:24.539Z,12.61
2022-10-15T18:11:53.665Z,12.60
2022-10-15T18:14:21.744Z,12.54
2022-10-15T18:16:49.717Z,12.51
2022-10-15T18:19:17.536Z,12.38
2022-10-15T18:21:48.690Z,12.38
2022-10-15T18:24:19.925Z,12.45
2022-10-15T18:26:48.129Z,12.52
2022-10-15T18:29:17.196Z,12.59
2022-10-15T18:31:46.983Z,12.66
2022-10-15T18:34:14.933Z,12.71
2022-10-15T18:36:43.561Z,12.76
2022-10-15T18:39:11.564Z,12.75
2022-10-15T18:41:40.204Z,12.69
2022-10-15T18:44:12.813Z,12.74
2022-10-15T18:46:43.883Z,12.74
2022-10-15T18:49:13.068Z,12.54
2022-10-15T18:51:41.462Z,12.35
2022-10-15T18:54:11.010Z,12.29
2022-10-15T18:56:38.913Z,12.27
2022-10-15T18:59:06.687Z,12.19
2022-10-15T19:01:37.106Z,12.11
2022-10-15T19:04:08.295Z,12.16
2022-10-15T19:06:39.091Z,12.11
2022-10-15T19:09:08.846Z,12.16
2022-10-15T19:11:45.857Z,12.29
2022-10-15T19:14:17.465Z,12.41
2022-10-15T19:16:46.638Z,12.53
2022-10-15T19:19:18.639Z,12.68
2022-10-15T19:21:47.715Z,12.78
2022-10-15T19:24:17.017Z,12.84
2022-10-15T19:26:45.571Z,12.88
2022-10-15T19:29:13.414Z,12.95
2022-10-15T19:31:44.184Z,12.99
2022-10-15T19:34:13.202Z,12.99
2022-10-15T19:36:44.315Z,12.99
2022-10-15T19:39:14.402Z,13.03
2022-10-15T19:41:43.393Z,13.12
2022-10-15T19:44:13.320Z,13.18
2022-10-15T19:46:41.589Z,13.21
2022-10-15T19:49:12.965Z,13.24
2022-10-15T19:51:42.093Z,13.29
2022-10-15T19:54:10.116Z,13.33
2022-10-15T19:56:37.985Z,13.38
2022-10-15T19:59:06.732Z,13.45
2022-10-15T20:01:34.864Z,13.51
2022-10-15T20:04:06.098Z,13.52
2022-10-15T20:06:35.860Z,13.55
2022-10-15T20:09:05.274Z,13.55
2022-10-15T20:11:33.878Z,13.56
2022-10-15T20:14:02.259Z,13.59
2022-10-15T20:16:33.132Z,13.62
2022-10-15T20:19:02.720Z,13.61
2022-10-15T20:21:30.502Z,13.60
2022-10-15T20:23:58.545Z,13.63
2022-10-15T20:26:27.662Z,13.61
2022-10-15T20:28:55.449Z,13.60
2022-10-15T20:31:28.463Z,13.58
2022-10-15T20:33:56.313Z,13.55
2022-10-15T20:36:24.840Z,13.57
2022-10-15T20:38:53.076Z,13.54
2022-10-15T20:41:20.984Z,13.50
2022-10-15T20:43:54.879Z,13.48
2022-10-15T20:46:26.595Z,13.47
2022-10-15T20:48:56.464Z,13.47
2022-10-15T20:51:27.731Z,13.49
2022-10-15T20:53:56.787Z,13.50
2022-10-15T20:56:24.948Z,13.46
2022-10-15T20:58:54.034Z,13.46
2022-10-15T21:01:21.802Z,13.43
2022-10-15T21:03:49.652Z,13.43
2022-10-15T21:06:17.713Z,13.42
2022-10-15T21:08:45.491Z,13.40
2022-10-15T21:11:13.341Z,13.40
2022-10-15T21:13:41.122Z,13.39
2022-10-15T21:16:10.638Z,13.40
2022-10-15T21:18:38.704Z,13.43
2022-10-15T21:21:08.250Z,13.44
2022-10-15T21:23:37.337Z,13.44
2022-10-15T21:26:06.427Z,13.46
2022-10-15T21:28:34.335Z,13.47
2022-10-15T21:31:05.193Z,13.49
2022-10-15T21:33:36.058Z,13.48
2022-10-15T21:36:11.561Z,13.46
2022-10-15T21:38:39.370Z,13.47
2022-10-15T21:41:07.734Z,13.49
2022-10-15T21:43:36.130Z,13.49
2022-10-15T21:46:08.751Z,13.49
2022-10-15T21:48:38.408Z,13.49
2022-10-15T21:51:06.582Z,13.50
2022-10-15T21:53:35.316Z,13.49
2022-10-15T21:56:05.586Z,13.50
2022-10-15T21:58:33.471Z,13.47
2022-10-15T22:01:08.821Z,13.47
2022-10-15T22:03:38.142Z,13.46
2022-10-15T22:06:06.052Z,13.44
2022-10-15T22:08:33.821Z,13.43
2022-10-15T22:11:09.508Z,13.41
2022-10-15T22:13:37.502Z,13.40
2022-10-15T22:16:06.244Z,13.41
2022-10-15T22:18:34.009Z,13.39
2022-10-15T22:21:15.204Z,13.40
2022-10-15T22:23:43.979Z,13.43
2022-10-15T22:26:11.810Z,13.42
2022-10-15T22:28:39.703Z,13.41
2022-10-15T22:31:10.164Z,13.39
2022-10-15T22:33:40.726Z,13.39
2022-10-15T22:36:13.833Z,13.40
2022-10-15T22:38:41.775Z,13.40
2022-10-15T22:41:10.325Z,13.39
2022-10-15T22:43:38.602Z,13.41
2022-10-15T22:46:07.342Z,13.42
2022-10-15T22:48:35.613Z,13.41
2022-10-15T22:51:03.985Z,13.35
2022-10-15T22:53:33.833Z,13.34
2022-10-15T22:56:03.479Z,13.32
2022-10-15T22:58:32.577Z,13.29
2022-10-15T23:01:07.991Z,13.26
2022-10-15T23:03:35.997Z,13.22
2022-10-15T23:06:04.050Z,13.17
2022-10-15T23:08:34.279Z,13.14
2022-10-15T23:11:10.354Z,13.09
2022-10-15T23:13:38.669Z,12.95
2022-10-15T23:16:13.535Z,12.83
2022-10-15T23:18:41.752Z,12.77
2022-10-15T23:21:13.678Z,12.73
2022-10-15T23:23:43.675Z,12.70
2022-10-15T23:26:12.921Z,12.66
2022-10-15T23:28:41.069Z,12.65
2022-10-15T23:31:08.853Z,12.64
2022-10-15T23:33:36.558Z,12.58
2022-10-15T23:36:06.143Z,12.58
2022-10-15T23:38:33.905Z,12.55
2022-10-15T23:41:04.868Z,12.50
2022-10-15T23:43:32.986Z,12.33
2022-10-15T23:46:01.055Z,12.24
2022-10-15T23:48:29.607Z,12.24
2022-10-15T23:51:00.966Z,12.17
2022-10-15T23:53:33.578Z,12.16
2022-10-15T23:56:03.692Z,12.18
2022-10-15T23:58:33.004Z,12.25
